Worthington, Iowa
Current Conditions -  °F | °C
As of 1:35 PM on Friday 31 Oct 2014 (Local Time) from KMXO Reporting Station
Clear Clear  
Wind Chill: 32°   Ceiling: Unl
Heat Index: 41°   Visibility: 10mi
Dew Point: 19°   Wind: 17mph
Humidity: 42%   Direction: 350°N
Pressure: 30.38"   Gusts: 26mph
Location:  42.4°N, 91.12°W
Report Text: KMXO 311835Z AUTO 35015G23KT 320V020 10SM CLR 05/M07 A3038 RMK AO2
Loading
Personal Weather Stations






























Interactive Weather Map New forecast layout! Learn more

10-Day Weather Forecast

Advertisements
Track Severe Weather on mobile